Time;durP1;ratioP1;P1;durP2;ratioP2;P2;SDS_P1;SDS_P2;PMS_P1;PMS_P2;Temp;Humidity;BMP_temperature;BMP_pressure;BME280_temperature;BME280_humidity;BME280_pressure;Samples;Min_cycle;Max_cycle;Signal;HPM_P1;HPM_P2
2022/09/03 00:01:54;;;;;;;2.20;2.00;;;;;;;18.26;50.90;99966.81;5053975;28;20287;-72
2022/09/03 00:04:28;;;;;;;2.75;2.55;;;;;;;18.25;51.07;99968.66;5056200;28;20620;-72
2022/09/03 00:07:01;;;;;;;2.95;2.25;;;;;;;18.29;51.11;99969.25;5068170;28;20230;-71
2022/09/03 00:09:32;;;;;;;2.70;2.25;;;;;;;18.30;50.91;99965.56;5065414;28;20675;-71
2022/09/03 00:12:08;;;;;;;2.72;2.42;;;;;;;18.27;50.68;99972.13;5064780;28;20311;-72
2022/09/03 00:14:39;;;;;;;2.30;2.10;;;;;;;18.32;50.66;99963.56;5052162;28;20203;-71
2022/09/03 00:17:10;;;;;;;3.45;2.38;;;;;;;18.38;50.65;99968.47;5074007;28;20287;-71
2022/09/03 00:19:44;;;;;;;3.28;2.17;;;;;;;18.33;50.53;99968.00;5062695;28;20296;-70
2022/09/03 00:22:17;;;;;;;2.75;2.17;;;;;;;18.28;50.80;99957.50;5062435;28;20196;-73
2022/09/03 00:24:46;;;;;;;3.25;2.22;;;;;;;18.24;50.84;99956.03;5060596;28;20211;-72
2022/09/03 00:27:17;;;;;;;3.40;2.80;;;;;;;18.31;50.84;99961.81;5062142;28;20211;-71
2022/09/03 00:29:49;;;;;;;3.75;2.30;;;;;;;18.29;50.77;99956.53;5063177;28;20213;-73
2022/09/03 00:32:20;;;;;;;3.33;2.08;;;;;;;18.29;50.73;99967.41;5056143;28;20320;-71
2022/09/03 00:34:54;;;;;;;1.98;1.80;;;;;;;18.29;50.88;99961.06;5052637;28;20286;-73
2022/09/03 00:37:21;;;;;;;2.90;1.83;;;;;;;18.28;51.21;99962.94;5057240;28;20224;-72
2022/09/03 00:39:47;;;;;;;4.95;2.25;;;;;;;18.28;50.96;99967.53;5069516;28;20249;-71
2022/09/03 00:42:30;;;;;;;3.38;2.22;;;;;;;18.21;51.32;99971.78;5058620;28;20215;-72
2022/09/03 00:45:09;;;;;;;3.05;2.08;;;;;;;18.13;51.51;99962.41;5079876;28;20220;-72
2022/09/03 00:47:48;;;;;;;2.88;2.22;;;;;;;18.10;51.52;99961.78;5076390;28;20314;-74
2022/09/03 00:50:29;;;;;;;2.83;2.47;;;;;;;18.06;52.00;99969.31;5067896;28;20227;-72
2022/09/03 00:53:02;;;;;;;5.25;2.38;;;;;;;17.96;52.47;99964.81;5058785;28;20201;-72
2022/09/03 00:55:39;;;;;;;2.20;2.00;;;;;;;17.90;52.94;99967.00;5058759;28;20200;-72
2022/09/03 00:58:26;;;;;;;4.57;2.40;;;;;;;17.92;52.79;99953.28;5060114;28;20185;-71
2022/09/03 01:00:53;;;;;;;3.97;2.42;;;;;;;17.92;52.74;99956.00;5056036;28;20225;-71
2022/09/03 01:03:28;;;;;;;3.00;2.70;;;;;;;17.95;52.72;99961.19;5054688;28;20200;-71
2022/09/03 01:06:17;;;;;;;5.20;2.25;;;;;;;17.95;52.71;99955.72;5045634;28;20205;-71
2022/09/03 01:08:58;;;;;;;3.58;2.20;;;;;;;17.83;53.14;99956.78;5060540;28;20284;-71
2022/09/03 01:11:39;;;;;;;2.47;2.28;;;;;;;17.79;53.64;99961.56;5059612;28;20229;-72
2022/09/03 01:14:14;;;;;;;2.60;2.40;;;;;;;17.87;53.52;99963.69;5062257;28;20212;-72
2022/09/03 01:16:47;;;;;;;5.85;2.40;;;;;;;17.89;53.47;99961.72;5046889;28;20188;-72
2022/09/03 01:19:34;;;;;;;2.50;2.30;;;;;;;17.91;53.45;99957.00;5054958;28;20559;-71
2022/09/03 01:22:24;;;;;;;2.20;2.00;;;;;;;17.92;53.11;99962.31;5061309;28;20224;-72
2022/09/03 01:25:12;;;;;;;5.18;2.78;;;;;;;17.92;53.11;99972.34;5055599;28;20190;-72
2022/09/03 01:27:46;;;;;;;2.80;1.90;;;;;;;17.91;53.26;99960.59;5058539;28;20190;-73
2022/09/03 01:30:17;;;;;;;3.03;2.42;;;;;;;17.95;53.19;99966.63;5059752;28;20217;-72
2022/09/03 01:32:54;;;;;;;2.53;2.33;;;;;;;18.00;53.18;99950.78;5058343;28;20209;-72
2022/09/03 01:35:29;;;;;;;4.32;2.50;;;;;;;18.01;53.07;99955.22;5062768;28;20215;-71
2022/09/03 01:38:09;;;;;;;4.32;2.22;;;;;;;18.07;52.93;99959.31;5064783;28;20196;-72
2022/09/03 01:40:42;;;;;;;2.55;1.90;;;;;;;18.04;53.17;99959.56;5056830;28;20555;-71
2022/09/03 01:43:35;;;;;;;1.80;1.70;;;;;;;18.03;53.28;99969.59;5063804;28;20254;-72
2022/09/03 01:46:12;;;;;;;3.38;2.50;;;;;;;18.03;53.46;99961.41;5044804;28;20284;-72
2022/09/03 01:48:45;;;;;;;4.15;2.95;;;;;;;18.11;53.20;99964.38;5055491;28;20239;-72
2022/09/03 01:51:19;;;;;;;11.70;10.50;;;;;;;18.16;53.34;99961.28;5061986;28;20231;-71
2022/09/03 01:54:06;;;;;;;6.60;5.13;;;;;;;18.22;52.87;99952.56;5053328;28;20711;-72
2022/09/03 01:56:47;;;;;;;3.08;2.47;;;;;;;18.29;52.61;99950.19;5062803;28;20189;-72
2022/09/03 01:59:20;;;;;;;2.60;2.33;;;;;;;18.28;52.73;99945.72;5054828;28;20210;-71
2022/09/03 02:01:55;;;;;;;2.33;2.08;;;;;;;18.28;52.78;99951.19;5060310;28;20642;-72
2022/09/03 02:04:25;;;;;;;2.03;1.83;;;;;;;18.26;53.03;99951.31;5054942;28;20651;-72
2022/09/03 02:06:53;;;;;;;4.97;1.92;;;;;;;18.28;52.97;99956.63;5060895;28;20200;-72
2022/09/03 02:09:20;;;;;;;2.45;2.00;;;;;;;18.34;52.51;99947.94;5058417;28;20198;-72
2022/09/03 02:11:54;;;;;;;2.28;2.08;;;;;;;18.31;52.26;99950.91;5051619;28;20202;-73
2022/09/03 02:14:21;;;;;;;3.80;2.10;;;;;;;18.29;52.57;99951.06;5061049;28;20193;-73
2022/09/03 02:16:49;;;;;;;2.72;2.53;;;;;;;18.32;52.57;99964.44;5064665;28;20201;-72
2022/09/03 02:19:18;;;;;;;2.53;2.30;;;;;;;18.37;52.40;99966.75;5065117;28;20232;-72
2022/09/03 02:21:49;;;;;;;4.35;1.92;;;;;;;18.31;52.63;99961.81;5048570;28;20218;-72
2022/09/03 02:24:16;;;;;;;3.90;1.92;;;;;;;18.37;52.60;99955.84;5050757;28;20200;-71
2022/09/03 02:26:43;;;;;;;2.47;2.03;;;;;;;18.40;52.55;99955.56;5070779;28;20201;-72
2022/09/03 02:29:10;;;;;;;2.95;1.98;;;;;;;18.48;52.19;99961.25;5075033;28;20292;-72
2022/09/03 02:31:37;;;;;;;2.13;1.92;;;;;;;18.43;52.26;99965.34;5072194;28;20300;-73
2022/09/03 02:34:05;;;;;;;10.40;9.30;;;;;;;18.48;52.50;99966.72;5058058;28;20209;-72
2022/09/03 02:36:33;;;;;;;14.10;12.60;;;;;;;18.47;52.76;99966.84;5068867;28;20266;-73
2022/09/03 02:39:00;;;;;;;9.95;7.53;;;;;;;18.46;52.78;99971.44;5061898;28;20225;-72
2022/09/03 02:41:27;;;;;;;3.25;2.95;;;;;;;18.51;52.84;99974.63;5066358;28;20221;-72
2022/09/03 02:44:01;;;;;;;2.40;2.20;;;;;;;18.47;52.19;99966.84;5072465;28;20197;-73
2022/09/03 02:46:34;;;;;;;4.28;3.92;;;;;;;18.40;52.14;99969.22;5074059;28;20196;-72
2022/09/03 02:49:01;;;;;;;5.80;4.63;;;;;;;18.47;51.82;99966.84;5066341;28;20193;-71
2022/09/03 02:51:34;;;;;;;6.10;5.60;;;;;;;18.55;51.74;99967.91;5079573;28;20249;-71
2022/09/03 02:54:00;;;;;;;4.90;4.40;;;;;;;18.63;51.54;99969.09;5073258;28;20209;-72
2022/09/03 02:56:27;;;;;;;2.95;2.20;;;;;;;18.63;51.33;99963.66;5072526;28;20215;-72
2022/09/03 02:58:53;;;;;;;3.80;1.88;;;;;;;18.60;51.37;99959.34;5063006;28;20311;-71
2022/09/03 03:01:20;;;;;;;3.33;1.90;;;;;;;18.61;51.34;99960.19;5062574;28;20219;-72
2022/09/03 03:03:46;;;;;;;3.42;2.00;;;;;;;18.60;51.54;99964.78;5068224;28;20733;-72
2022/09/03 03:06:13;;;;;;;4.30;1.92;;;;;;;18.53;51.77;99963.59;5062359;28;20210;-72
2022/09/03 03:08:43;;;;;;;17.98;16.08;;;;;;;18.49;51.98;99965.69;5069656;28;20200;-72
2022/09/03 03:11:10;;;;;;;6.07;5.47;;;;;;;18.56;51.88;99955.13;5062214;28;20217;-72
2022/09/03 03:13:36;;;;;;;5.53;4.97;;;;;;;18.66;51.67;99961.53;5060964;28;20207;-73
2022/09/03 03:16:06;;;;;;;4.18;2.67;;;;;;;18.67;51.56;99962.41;5068574;28;20196;-73
2022/09/03 03:18:33;;;;;;;4.15;2.35;;;;;;;18.66;51.74;99967.00;5058917;28;20196;-73
2022/09/03 03:21:04;;;;;;;2.40;2.20;;;;;;;18.70;51.65;99960.28;5059016;28;20229;-73
2022/09/03 03:23:32;;;;;;;2.50;2.30;;;;;;;18.64;51.94;99952.63;5054003;28;20618;-72
2022/09/03 03:26:02;;;;;;;3.95;2.05;;;;;;;18.72;51.83;99954.69;5050553;28;20209;-72
2022/09/03 03:28:32;;;;;;;2.35;2.15;;;;;;;18.69;51.82;99963.13;5062674;28;20200;-72
2022/09/03 03:30:59;;;;;;;4.53;1.85;;;;;;;18.57;52.16;99951.44;5061157;28;20364;-72
2022/09/03 03:33:26;;;;;;;2.60;2.20;;;;;;;18.55;52.43;99948.81;5058061;28;20620;-72
2022/09/03 03:35:52;;;;;;;2.35;2.00;;;;;;;18.64;52.35;99947.16;5060964;28;20221;-72
2022/09/03 03:38:19;;;;;;;2.60;2.35;;;;;;;18.67;52.37;99956.94;5058079;28;20204;-72
2022/09/03 03:40:46;;;;;;;2.10;1.90;;;;;;;18.63;52.37;99958.19;5056168;28;20242;-73
2022/09/03 03:43:14;;;;;;;2.28;2.13;;;;;;;18.61;52.88;99957.47;5054739;28;20201;-72
2022/09/03 03:45:40;;;;;;;2.67;1.90;;;;;;;18.64;52.68;99954.50;5064494;28;20288;-73
2022/09/03 03:48:07;;;;;;;4.97;2.20;;;;;;;18.66;52.67;99949.78;5061328;28;20202;-72
2022/09/03 03:50:33;;;;;;;7.38;6.03;;;;;;;18.70;52.52;99956.66;5056617;28;20631;-72
2022/09/03 03:53:00;;;;;;;10.55;9.50;;;;;;;18.71;52.59;99953.81;5044449;28;20708;-72
2022/09/03 03:55:26;;;;;;;5.50;4.47;;;;;;;18.72;52.66;99951.94;5061217;28;20201;-72
2022/09/03 03:57:53;;;;;;;5.55;3.22;;;;;;;18.65;52.75;99951.63;5041812;28;20246;-72
2022/09/03 04:00:21;;;;;;;3.65;2.47;;;;;;;18.62;52.80;99949.16;5060159;28;20220;-71
2022/09/03 04:02:47;;;;;;;3.05;2.00;;;;;;;18.59;52.88;99943.97;5054463;28;20288;-73
2022/09/03 04:05:14;;;;;;;4.10;2.47;;;;;;;18.63;53.17;99941.84;5063092;28;20207;-71
2022/09/03 04:07:40;;;;;;;3.63;2.25;;;;;;;18.63;53.10;99950.03;5070484;28;20199;-72
2022/09/03 04:10:08;;;;;;;2.42;1.90;;;;;;;18.63;53.15;99945.47;5064456;28;20307;-72
2022/09/03 04:12:35;;;;;;;3.20;2.28;;;;;;;18.62;53.29;99945.56;5061712;28;20660;-72
2022/09/03 04:15:02;;;;;;;2.22;2.00;;;;;;;18.55;53.62;99939.78;5067259;28;20207;-71
2022/09/03 04:17:30;;;;;;;1.85;1.75;;;;;;;18.53;53.76;99942.63;5060091;28;20224;-71
2022/09/03 04:19:57;;;;;;;2.88;1.80;;;;;;;18.50;53.91;99944.78;5055046;28;20235;-71
2022/09/03 04:22:23;;;;;;;3.63;2.38;;;;;;;18.53;53.84;99939.91;5057018;28;20203;-71
2022/09/03 04:24:50;;;;;;;4.93;3.80;;;;;;;18.54;53.98;99941.66;5050585;28;20267;-73
2022/09/03 04:27:16;;;;;;;5.57;4.43;;;;;;;18.51;54.06;99947.34;5057628;28;20204;-71
2022/09/03 04:29:43;;;;;;;4.90;3.58;;;;;;;18.56;54.09;99946.94;5062421;28;20291;-71
2022/09/03 04:34:56;;;;;;;2.53;2.08;;;;;;;18.49;54.42;99948.47;5031537;28;20201;-72
2022/09/03 04:37:22;;;;;;;2.97;2.78;;;;;;;18.51;54.46;99952.81;5058253;28;20618;-72
2022/09/03 04:39:49;;;;;;;2.65;2.45;;;;;;;18.54;54.32;99958.00;5070815;28;20594;-71
2022/09/03 04:42:15;;;;;;;2.47;2.25;;;;;;;18.57;54.29;99950.56;5057690;28;20200;-72
2022/09/03 04:44:42;;;;;;;2.60;1.95;;;;;;;18.57;54.40;99953.28;5055958;28;20197;-72
2022/09/03 04:47:08;;;;;;;2.30;2.10;;;;;;;18.59;54.49;99951.28;5060238;28;20207;-73
2022/09/03 04:49:35;;;;;;;2.40;2.20;;;;;;;18.60;54.32;99942.97;5031516;28;20224;-73
2022/09/03 04:52:03;;;;;;;2.95;2.20;;;;;;;18.61;54.31;99942.00;5067790;28;20196;-73
2022/09/03 04:54:30;;;;;;;5.00;2.83;;;;;;;18.59;54.19;99935.81;5052792;28;20197;-77
2022/09/03 04:56:57;;;;;;;2.53;2.33;;;;;;;18.57;54.51;99945.97;5041183;28;20204;-75
2022/09/03 04:59:23;;;;;;;2.47;2.28;;;;;;;18.60;54.45;99947.56;5056798;28;20287;-77
2022/09/03 05:01:51;;;;;;;2.58;1.90;;;;;;;18.63;54.46;99940.00;5058190;28;20569;-77
2022/09/03 05:04:18;;;;;;;2.42;2.22;;;;;;;18.62;54.31;99951.88;5044841;28;20214;-78
2022/09/03 05:06:44;;;;;;;2.47;2.20;;;;;;;18.60;54.50;99945.69;5056753;28;20228;-77
2022/09/03 05:09:12;;;;;;;2.50;2.30;;;;;;;18.58;54.63;99946.84;5097809;28;20427;-77
2022/09/03 05:11:39;;;;;;;2.30;2.10;;;;;;;18.51;54.91;99941.91;5101409;28;20200;-78
2022/09/03 05:14:05;;;;;;;2.75;2.05;;;;;;;18.51;55.02;99944.63;5098529;28;20220;-77
2022/09/03 05:16:32;;;;;;;2.58;2.30;;;;;;;18.42;55.49;99945.41;5079854;28;20189;-77
2022/09/03 05:19:00;;;;;;;2.40;2.20;;;;;;;18.35;55.84;99963.28;5075933;28;20213;-76
2022/09/03 05:21:27;;;;;;;2.30;2.10;;;;;;;18.46;55.73;99959.66;5088942;28;20273;-78
2022/09/03 05:23:54;;;;;;;5.95;2.20;;;;;;;18.51;55.56;99955.53;5082030;28;20310;-75
2022/09/03 05:26:24;;;;;;;3.67;2.50;;;;;;;18.66;54.94;99956.09;5059479;28;20361;-74
2022/09/03 05:28:54;;;;;;;6.38;5.63;;;;;;;18.75;54.72;99955.28;5053548;28;20192;-73
2022/09/03 05:31:24;;;;;;;19.02;14.07;;;;;;;18.88;54.40;99957.84;5064700;28;20220;-72
2022/09/03 05:33:53;;;;;;;13.93;9.73;;;;;;;19.00;54.01;99960.50;5060656;28;21006;-73
2022/09/03 05:36:22;;;;;;;5.63;4.30;;;;;;;19.08;53.88;99963.41;5061755;28;20201;-72
2022/09/03 05:38:49;;;;;;;8.95;7.40;;;;;;;19.02;54.35;99966.72;5059607;28;20206;-72
2022/09/03 05:41:17;;;;;;;4.85;4.10;;;;;;;18.99;54.32;99966.94;5063746;28;20217;-74
2022/09/03 05:43:51;;;;;;;5.60;3.97;;;;;;;18.98;54.52;99970.69;5061331;28;20331;-72
2022/09/03 05:46:18;;;;;;;5.93;4.95;;;;;;;19.02;54.55;99969.44;5061410;28;20239;-72
2022/09/03 05:48:45;;;;;;;4.32;3.00;;;;;;;18.96;54.97;99976.28;5071029;28;20197;-73
2022/09/03 05:51:15;;;;;;;3.47;3.13;;;;;;;18.93;55.20;99980.16;5073216;28;20303;-72
2022/09/03 05:53:42;;;;;;;3.85;2.65;;;;;;;18.83;55.83;99976.47;5065930;28;20198;-74
2022/09/03 05:56:12;;;;;;;2.75;2.20;;;;;;;18.92;55.68;99970.22;5081279;28;20235;-75
2022/09/03 05:58:51;;;;;;;4.78;2.58;;;;;;;18.86;56.21;99984.41;5072506;28;20239;-74
2022/09/03 06:01:19;;;;;;;2.70;2.30;;;;;;;18.88;56.32;99976.97;5068684;28;20220;-73
2022/09/03 06:03:47;;;;;;;2.88;2.20;;;;;;;18.79;56.90;99988.66;5059396;28;20201;-74
2022/09/03 06:06:15;;;;;;;2.90;2.30;;;;;;;18.81;56.99;99989.38;5053480;28;20193;-73
2022/09/03 06:08:43;;;;;;;5.93;2.75;;;;;;;18.89;56.80;100005.09;5052754;28;20204;-73
2022/09/03 06:11:11;;;;;;;4.45;2.30;;;;;;;18.74;57.39;99999.06;5049079;28;20225;-73
2022/09/03 06:13:38;;;;;;;3.08;2.58;;;;;;;18.73;57.75;100005.53;5064145;28;20306;-74
2022/09/03 06:16:07;;;;;;;5.05;2.60;;;;;;;18.67;58.09;100001.44;5054759;28;20205;-74
2022/09/03 06:18:34;;;;;;;2.78;2.10;;;;;;;18.74;57.53;100008.09;5043999;28;20802;-71
2022/09/03 06:21:01;;;;;;;4.68;2.60;;;;;;;18.71;57.73;100007.50;5050759;28;20226;-72
2022/09/03 06:23:29;;;;;;;2.83;2.47;;;;;;;18.69;57.76;100006.78;5054748;28;20660;-73
2022/09/03 06:26:04;;;;;;;2.45;2.25;;;;;;;18.82;57.49;100001.19;5058131;28;20675;-73
2022/09/03 06:28:31;;;;;;;3.67;2.40;;;;;;;18.82;58.42;99999.31;5061998;28;20304;-74
2022/09/03 06:30:58;;;;;;;4.25;2.50;;;;;;;18.85;59.40;100006.34;5064508;28;20357;-75
2022/09/03 06:33:26;;;;;;;5.68;2.47;;;;;;;18.94;58.98;100016.47;5071123;28;20204;-75
2022/09/03 06:35:56;;;;;;;3.50;2.13;;;;;;;19.06;58.73;100018.16;5077486;28;20213;-75
2022/09/03 06:38:23;;;;;;;5.00;2.88;;;;;;;18.95;59.02;100019.06;5055965;28;20201;-77
2022/09/03 06:40:53;;;;;;;4.03;2.30;;;;;;;18.95;59.69;100010.88;5069603;28;20217;-75
2022/09/03 06:43:19;;;;;;;3.50;3.20;;;;;;;18.98;60.78;100006.16;5056493;28;20219;-75
2022/09/03 06:45:54;;;;;;;4.22;2.70;;;;;;;18.96;61.10;100012.59;5049105;28;20292;-75
2022/09/03 06:48:21;;;;;;;4.05;3.65;;;;;;;19.02;63.55;100010.38;5052209;28;20191;-75
2022/09/03 06:51:01;;;;;;;4.85;2.53;;;;;;;19.13;61.45;100007.53;5056039;28;20300;-75
2022/09/03 06:53:30;;;;;;;4.20;2.80;;;;;;;19.01;62.73;100009.47;5069198;28;20623;-75
2022/09/03 06:56:00;;;;;;;3.72;2.35;;;;;;;18.95;63.83;100010.88;5054705;28;20209;-72
2022/09/03 06:58:30;;;;;;;3.38;3.00;;;;;;;18.76;63.70;100010.69;5055327;28;20196;-75
2022/09/03 07:01:01;;;;;;;2.60;2.40;;;;;;;19.01;62.70;100016.81;5066173;28;20733;-74
2022/09/03 07:03:28;;;;;;;3.80;2.67;;;;;;;19.07;62.85;100019.00;5063025;28;20594;-74
2022/09/03 07:05:59;;;;;;;3.22;2.92;;;;;;;19.12;62.64;100025.78;5068248;28;20228;-74
2022/09/03 07:08:28;;;;;;;4.13;3.00;;;;;;;18.99;64.71;100014.19;5061636;28;20199;-73
2022/09/03 07:10:55;;;;;;;4.45;2.75;;;;;;;19.19;65.85;100022.53;5061978;28;20694;-73
2022/09/03 07:13:21;;;;;;;3.60;3.00;;;;;;;19.25;65.58;100022.00;5052942;28;20656;-73
2022/09/03 07:15:48;;;;;;;5.53;2.85;;;;;;;19.21;65.08;100021.38;5074414;28;20526;-73
2022/09/03 07:18:15;;;;;;;3.55;3.03;;;;;;;19.26;64.35;100032.75;5061389;28;20211;-73
2022/09/03 07:20:42;;;;;;;5.25;3.03;;;;;;;19.29;66.04;100029.78;5065777;28;20217;-76
2022/09/03 07:23:08;;;;;;;3.88;2.58;;;;;;;19.49;65.25;100019.84;5065950;28;20212;-74
2022/09/03 07:25:36;;;;;;;2.83;2.60;;;;;;;19.28;65.95;100025.31;5075265;28;20190;-72
2022/09/03 07:28:05;;;;;;;3.00;2.70;;;;;;;19.29;66.48;100023.47;5075449;28;20205;-73
2022/09/03 07:30:32;;;;;;;3.30;2.77;;;;;;;19.23;67.37;100029.47;5076340;28;20217;-74
2022/09/03 07:33:02;;;;;;;6.27;3.00;;;;;;;19.01;69.20;100036.75;5067996;28;20500;-74
2022/09/03 07:35:29;;;;;;;2.60;2.40;;;;;;;19.13;68.93;100038.44;5051397;28;20793;-74
2022/09/03 07:37:56;;;;;;;3.63;2.77;;;;;;;19.41;69.68;100036.03;5071541;28;20197;-73
2022/09/03 07:40:22;;;;;;;4.80;3.13;;;;;;;19.42;69.56;100032.28;5059099;28;20575;-74
2022/09/03 07:43:03;;;;;;;5.57;4.85;;;;;;;19.07;69.21;100040.84;5062890;28;21064;-73
2022/09/03 07:45:29;;;;;;;3.05;2.75;;;;;;;18.85;69.08;100039.09;5055680;28;20231;-74
2022/09/03 07:47:56;;;;;;;3.70;2.90;;;;;;;18.90;70.19;100039.56;5060343;28;20272;-75
2022/09/03 07:50:23;;;;;;;3.20;2.78;;;;;;;18.86;69.84;100033.50;5065698;28;20221;-74
2022/09/03 07:52:49;;;;;;;2.88;2.67;;;;;;;18.72;72.32;100044.69;5062520;28;20200;-76
2022/09/03 07:55:16;;;;;;;3.25;2.95;;;;;;;18.87;71.75;100042.56;5062483;28;20264;-74
2022/09/03 07:57:43;;;;;;;4.95;3.33;;;;;;;18.87;72.73;100048.88;5071225;28;20199;-74
2022/09/03 08:00:13;;;;;;;5.80;2.85;;;;;;;18.67;73.17;100053.25;5079325;28;20247;-75
2022/09/03 08:02:39;;;;;;;4.18;2.75;;;;;;;18.59;72.84;100047.63;5083036;28;20207;-74
2022/09/03 08:05:07;;;;;;;6.55;2.85;;;;;;;18.52;74.68;100052.72;5074730;28;20197;-75
2022/09/03 08:07:33;;;;;;;4.43;3.42;;;;;;;18.41;77.74;100049.16;5056718;28;20203;-74
2022/09/03 08:10:00;;;;;;;4.70;2.75;;;;;;;18.58;78.24;100050.47;5058641;28;20247;-75
2022/09/03 08:12:27;;;;;;;3.30;3.00;;;;;;;18.43;79.07;100058.94;5060925;28;20193;-74
2022/09/03 08:14:56;;;;;;;4.75;3.00;;;;;;;18.70;77.67;100049.41;5057142;28;20200;-74
2022/09/03 08:17:24;;;;;;;6.53;3.97;;;;;;;18.75;79.21;100055.34;5064749;28;20197;-74
2022/09/03 08:19:50;;;;;;;5.10;3.05;;;;;;;18.60;80.94;100059.38;5058217;28;20255;-74
2022/09/03 08:22:17;;;;;;;4.65;3.35;;;;;;;18.71;81.86;100052.00;5069449;28;20221;-76
2022/09/03 08:24:44;;;;;;;4.88;3.28;;;;;;;18.62;82.85;100057.38;5060073;28;20224;-73
2022/09/03 08:27:10;;;;;;;4.15;3.42;;;;;;;18.70;83.96;100049.41;5052245;28;20194;-74
2022/09/03 08:29:37;;;;;;;3.65;2.92;;;;;;;18.50;84.16;100056.56;5067149;28;20212;-73
2022/09/03 08:32:05;;;;;;;3.38;3.08;;;;;;;18.70;85.07;100054.84;5069467;28;20184;-74
2022/09/03 08:34:33;;;;;;;7.47;3.58;;;;;;;18.88;87.12;100050.63;5048851;28;20193;-73
2022/09/03 08:37:01;;;;;;;6.30;4.13;;;;;;;18.98;89.15;100058.00;5054042;28;20223;-74
2022/09/03 08:39:28;;;;;;;5.47;3.80;;;;;;;19.20;86.74;100057.88;5064561;28;20192;-74
2022/09/03 08:42:19;;;;;;;3.80;3.42;;;;;;;19.35;88.16;100061.13;5065970;28;20220;-74
2022/09/03 08:44:49;;;;;;;5.82;3.75;;;;;;;19.59;86.52;100049.91;5076966;23;20232;-72
2022/09/03 08:47:21;;;;;;;7.10;3.47;;;;;;;20.10;83.53;100057.22;5076580;28;20208;-74
2022/09/03 08:49:54;;;;;;;6.40;3.10;;;;;;;20.28;82.92;100062.00;5087433;28;20463;-74
2022/09/03 08:52:27;;;;;;;3.17;2.97;;;;;;;20.56;79.87;100069.41;5083988;28;20442;-73
2022/09/03 08:55:02;;;;;;;4.27;3.87;;;;;;;20.86;77.29;100080.41;5084855;28;20487;-72
2022/09/03 08:57:36;;;;;;;4.40;3.50;;;;;;;21.38;75.65;100069.97;5085878;28;20462;-73
2022/09/03 09:00:05;;;;;;;5.13;4.40;;;;;;;21.67;72.98;100066.34;5085963;28;20430;-71
2022/09/03 09:02:41;;;;;;;6.03;3.70;;;;;;;22.52;68.38;100070.66;5085843;28;20501;-71
2022/09/03 09:05:13;;;;;;;11.73;3.40;;;;;;;23.73;63.18;100073.78;5079008;28;20433;-73
2022/09/03 09:07:47;;;;;;;3.30;2.80;;;;;;;26.29;53.28;100072.03;5074864;28;20447;-72
2022/09/03 09:10:18;;;;;;;3.77;2.77;;;;;;;27.44;47.06;100074.91;5072730;28;20768;-72
2022/09/03 09:12:52;;;;;;;3.13;2.47;;;;;;;27.73;45.65;100077.91;5072005;28;20423;-73
2022/09/03 09:15:29;;;;;;;3.10;2.60;;;;;;;28.18;45.97;100082.44;5070015;28;20426;-71
2022/09/03 09:18:09;;;;;;;3.83;2.73;;;;;;;27.81;47.24;100089.75;5069313;28;20457;-72
2022/09/03 09:20:43;;;;;;;3.50;3.20;;;;;;;26.68;48.76;100096.00;5053901;28;20434;-71
2022/09/03 09:23:14;;;;;;;3.40;2.50;;;;;;;24.91;52.33;100098.72;5068983;28;20470;-73
2022/09/03 09:25:47;;;;;;;3.70;2.77;;;;;;;23.10;60.55;100097.72;5066284;28;20450;-71
2022/09/03 09:28:17;;;;;;;4.23;3.30;;;;;;;22.53;63.31;100091.63;5068580;28;20870;-74
2022/09/03 09:30:46;;;;;;;3.93;3.23;;;;;;;21.97;67.51;100087.97;5072499;28;20819;-73
2022/09/03 09:33:13;;;;;;;3.60;3.17;;;;;;;21.98;66.00;100094.31;5072230;28;20454;-73
2022/09/03 09:35:41;;;;;;;4.43;4.03;;;;;;;21.19;70.74;100099.13;5072000;28;20821;-75
2022/09/03 09:38:09;;;;;;;5.00;3.70;;;;;;;21.18;71.74;100093.78;5071639;28;20439;-74
2022/09/03 09:40:38;;;;;;;3.80;3.40;;;;;;;20.77;74.46;100091.19;5071988;28;20989;-72
2022/09/03 09:43:10;;;;;;;4.43;4.03;;;;;;;20.74;75.46;100094.22;5075446;28;20473;-73
2022/09/03 09:45:39;;;;;;;6.40;3.90;;;;;;;20.44;77.09;100095.13;5075771;28;20430;-73
2022/09/03 09:48:10;;;;;;;5.20;4.10;;;;;;;20.38;76.16;100087.50;5075624;28;20546;-74
2022/09/03 09:50:36;;;;;;;4.50;4.10;;;;;;;20.21;77.90;100080.81;5075795;28;20443;-72
2022/09/03 09:53:13;;;;;;;5.07;4.63;;;;;;;20.21;79.51;100078.09;5077189;28;20467;-73
2022/09/03 09:55:49;;;;;;;6.40;3.93;;;;;;;20.34;81.61;100078.69;5077765;28;20977;-75
2022/09/03 09:58:19;;;;;;;4.20;3.80;;;;;;;20.51;79.48;100088.09;5080152;28;20441;-74
2022/09/03 10:00:59;;;;;;;4.50;4.10;;;;;;;20.41;77.70;100093.53;5078808;28;20441;-74
2022/09/03 10:03:26;;;;;;;4.70;4.20;;;;;;;20.18;81.38;100098.38;5075679;28;20561;-73
2022/09/03 10:06:52;;;;;;;5.10;4.60;;;;;;;20.18;84.69;100102.97;5075522;28;20538;-74
2022/09/03 10:08:53;;;;;;;4.33;3.57;;;;;;;20.43;82.65;100096.13;5071512;28;20450;-73
2022/09/03 10:11:24;;;;;;;4.40;4.00;;;;;;;20.59;78.44;100088.28;5078355;28;20439;-73
2022/09/03 10:13:52;;;;;;;4.63;4.03;;;;;;;20.93;76.12;100093.34;5078491;28;20469;-73
2022/09/03 10:16:26;;;;;;;5.10;4.43;;;;;;;21.34;74.62;100101.41;5077819;28;20950;-74
2022/09/03 10:19:02;;;;;;;4.13;3.83;;;;;;;22.23;71.06;100099.16;5079704;28;20427;-75
2022/09/03 10:21:38;;;;;;;4.10;3.73;;;;;;;23.21;64.23;100101.25;5081103;28;20489;-75
2022/09/03 10:24:22;;;;;;;4.60;3.67;;;;;;;23.75;62.43;100096.53;5088808;28;20910;-76
2022/09/03 10:26:49;;;;;;;4.00;3.70;;;;;;;25.17;54.85;100088.41;5079289;28;20470;-73
2022/09/03 10:29:20;;;;;;;4.40;3.43;;;;;;;26.39;50.81;100083.72;5081208;28;20469;-72
2022/09/03 10:31:57;;;;;;;2.97;2.77;;;;;;;26.78;50.14;100082.84;5075336;28;20959;-73
2022/09/03 10:34:33;;;;;;;4.10;3.80;;;;;;;27.30;48.16;100084.03;5093242;28;20577;-71
2022/09/03 10:37:09;;;;;;;5.93;2.90;;;;;;;27.26;47.06;100087.34;5078499;28;20447;-72
2022/09/03 10:39:49;;;;;;;4.03;3.20;;;;;;;27.02;48.42;100094.75;5074043;28;20449;-71
2022/09/03 10:42:28;;;;;;;3.47;3.17;;;;;;;26.69;49.64;100083.06;5092166;28;20470;-74
2022/09/03 10:45:03;;;;;;;3.97;3.57;;;;;;;25.87;50.67;100081.50;5077860;28;20470;-73
2022/09/03 10:47:44;;;;;;;3.60;3.30;;;;;;;25.49;50.86;100078.44;5075164;28;20793;-75
2022/09/03 10:50:17;;;;;;;5.77;2.83;;;;;;;26.44;49.71;100069.38;5055036;28;20442;-76
2022/09/03 10:53:06;;;;;;;4.83;3.50;;;;;;;26.49;49.29;100077.97;5063114;28;20431;-76
2022/09/03 10:55:46;;;;;;;3.67;3.37;;;;;;;26.70;48.65;100080.09;5078832;28;20493;-73
2022/09/03 10:58:28;;;;;;;3.27;2.87;;;;;;;27.20;47.11;100081.53;5098495;28;20450;-76
2022/09/03 11:01:03;;;;;;;2.73;2.53;;;;;;;26.87;48.51;100080.03;5089859;28;20506;-76
2022/09/03 11:03:45;;;;;;;4.33;3.07;;;;;;;26.92;48.87;100081.19;5091390;28;20512;-75
2022/09/03 11:06:18;;;;;;;3.80;3.10;;;;;;;27.34;47.87;100087.25;5093846;28;20546;-75
2022/09/03 11:08:52;;;;;;;2.93;2.70;;;;;;;27.95;46.23;100085.31;5075988;28;20462;-75
2022/09/03 11:11:26;;;;;;;3.10;2.80;;;;;;;28.31;44.64;100081.72;5080084;28;20451;-77
2022/09/03 11:13:58;;;;;;;4.23;3.33;;;;;;;28.14;45.34;100072.78;5084981;28;20543;-76
2022/09/03 11:16:28;;;;;;;3.43;3.13;;;;;;;27.95;46.08;100065.06;5058933;28;20452;-74
2022/09/03 11:19:02;;;;;;;3.73;3.43;;;;;;;27.86;46.21;100075.38;5082822;28;20465;-74
2022/09/03 11:21:31;;;;;;;5.17;3.90;;;;;;;27.85;46.08;100085.56;5094958;28;20868;-75
2022/09/03 11:24:07;;;;;;;5.80;5.30;;;;;;;28.44;45.13;100076.38;5075579;28;20463;-75
2022/09/03 11:26:38;;;;;;;3.83;3.53;;;;;;;29.19;43.22;100073.41;5075819;28;20438;-74
2022/09/03 11:29:12;;;;;;;3.77;3.47;;;;;;;28.81;43.21;100066.19;5079747;28;20470;-71
2022/09/03 11:31:49;;;;;;;4.37;3.00;;;;;;;29.01;42.71;100063.63;5079038;28;20454;-75
2022/09/03 11:34:27;;;;;;;5.77;4.10;;;;;;;29.45;42.32;100059.78;5075773;28;20561;-72
2022/09/03 11:37:05;;;;;;;3.70;3.40;;;;;;;30.18;41.11;100062.19;5099698;28;20526;-71
2022/09/03 11:39:35;;;;;;;3.90;2.67;;;;;;;32.07;37.72;100065.97;5092424;28;20934;-75
2022/09/03 11:42:09;;;;;;;3.40;2.97;;;;;;;33.96;34.81;100055.09;5080985;28;20569;-73
2022/09/03 11:44:37;;;;;;;3.70;2.70;;;;;;;34.12;33.56;100051.72;5067668;28;20488;-72
2022/09/03 11:47:15;;;;;;;3.80;3.20;;;;;;;33.96;33.94;100052.31;5077220;28;20477;-72
2022/09/03 11:49:46;;;;;;;4.23;2.80;;;;;;;35.54;32.29;100057.91;5072055;28;20983;-74